Time;durP1;ratioP1;P1;durP2;ratioP2;P2;SDS_P1;SDS_P2;PMS_P1;PMS_P2;Temp;Humidity;BMP_temperature;BMP_pressure;BME280_temperature;BME280_humidity;BME280_pressure;Samples;Min_cycle;Max_cycle;Signal;HPM_P1;HPM_P2
2023/05/29 00:00:07;;;;;;;;;;;20.30;41.20;;;;;;5089421;28;19920;-58
2023/05/29 00:02:35;;;;;;;;;;;20.30;40.60;;;;;;5101299;28;19971;-58
2023/05/29 00:05:02;;;;;;;;;;;20.20;40.60;;;;;;5091249;28;19923;-58
2023/05/29 00:07:30;;;;;;;;;;;20.20;40.60;;;;;;5105668;28;19931;-57
2023/05/29 00:09:56;;;;;;;;;;;20.20;40.60;;;;;;5088850;28;19924;-58
2023/05/29 00:12:23;;;;;;;;;;;20.20;40.60;;;;;;5089202;28;19920;-57
2023/05/29 00:14:50;;;;;;;;;;;20.20;40.60;;;;;;5087843;28;19963;-57
2023/05/29 00:17:17;;;;;;;;;;;20.20;40.60;;;;;;5104685;28;19920;-57
2023/05/29 00:19:45;;;;;;;;;;;20.20;40.70;;;;;;5088663;28;19924;-57
2023/05/29 00:22:12;;;;;;;;;;;20.20;40.70;;;;;;5089082;28;19978;-57
2023/05/29 00:24:39;;;;;;;;;;;20.20;40.70;;;;;;5112850;28;19920;-58
2023/05/29 00:27:06;;;;;;;;;;;20.20;40.70;;;;;;5119504;28;19920;-59
2023/05/29 00:29:33;;;;;;;;;;;20.20;40.60;;;;;;5108698;28;19920;-58
2023/05/29 00:31:59;;;;;;;;;;;20.20;40.70;;;;;;5093467;28;19920;-57
2023/05/29 00:34:26;;;;;;;;;;;20.20;40.70;;;;;;5106399;28;19969;-57
2023/05/29 00:36:55;;;;;;;;;;;20.20;40.70;;;;;;5089660;28;19924;-57
2023/05/29 00:39:22;;;;;;;;;;;20.20;40.60;;;;;;5091380;28;20003;-57
2023/05/29 00:41:50;;;;;;;;;;;20.20;40.70;;;;;;5091988;28;19966;-57
2023/05/29 00:44:17;;;;;;;;;;;20.20;40.60;;;;;;5089909;28;19943;-57
2023/05/29 00:46:44;;;;;;;;;;;20.20;40.90;;;;;;5107919;28;20411;-57
2023/05/29 00:49:11;;;;;;;;;;;20.20;40.60;;;;;;5105084;28;19924;-57
2023/05/29 00:51:38;;;;;;;;;;;20.20;40.70;;;;;;5105938;28;19920;-57
2023/05/29 00:54:06;;;;;;;;;;;20.20;40.60;;;;;;5107085;28;19924;-57
2023/05/29 00:56:33;;;;;;;;;;;20.20;40.60;;;;;;5090391;28;19920;-57
2023/05/29 00:59:00;;;;;;;;;;;20.20;40.60;;;;;;5089543;28;20374;-57
2023/05/29 01:01:27;;;;;;;;;;;20.20;40.50;;;;;;5092802;28;19920;-57
2023/05/29 01:03:54;;;;;;;;;;;20.20;40.50;;;;;;5107105;28;19924;-57
2023/05/29 01:06:22;;;;;;;;;;;20.20;40.50;;;;;;5092703;28;19924;-58
2023/05/29 01:08:49;;;;;;;;;;;20.20;40.30;;;;;;5110471;28;19920;-58
2023/05/29 01:11:20;;;;;;;;;;;20.20;40.30;;;;;;5094330;28;19927;-58
2023/05/29 01:13:46;;;;;;;;;;;20.10;40.30;;;;;;5092667;28;20258;-58
2023/05/29 01:16:14;;;;;;;;;;;20.10;40.20;;;;;;5094058;28;19963;-58
2023/05/29 01:18:41;;;;;;;;;;;20.10;40.10;;;;;;5091995;28;19920;-58
2023/05/29 01:21:10;;;;;;;;;;;20.10;40.20;;;;;;5093061;28;19920;-58
2023/05/29 01:23:52;;;;;;;;;;;20.10;40.10;;;;;;5094194;28;19927;-57
2023/05/29 01:26:25;;;;;;;;;;;20.10;40.10;;;;;;5093662;28;19977;-57
2023/05/29 01:28:54;;;;;;;;;;;20.00;40.00;;;;;;5093941;28;19969;-58
2023/05/29 01:31:22;;;;;;;;;;;20.00;39.90;;;;;;5090890;28;19920;-58
2023/05/29 01:33:52;;;;;;;;;;;20.00;39.90;;;;;;5109822;28;19927;-58
2023/05/29 01:36:19;;;;;;;;;;;20.00;39.80;;;;;;5094530;28;19920;-57
2023/05/29 01:38:46;;;;;;;;;;;20.00;39.80;;;;;;5108211;28;19973;-57
2023/05/29 01:41:12;;;;;;;;;;;20.00;39.70;;;;;;5093941;28;19920;-58
2023/05/29 01:43:39;;;;;;;;;;;20.00;39.70;;;;;;5107659;28;19969;-58
2023/05/29 01:46:07;;;;;;;;;;;20.00;39.60;;;;;;5092704;28;19929;-58
2023/05/29 01:48:34;;;;;;;;;;;19.90;39.50;;;;;;5109629;28;19926;-58
2023/05/29 01:51:01;;;;;;;;;;;19.90;39.50;;;;;;5109763;28;19920;-58
2023/05/29 01:53:28;;;;;;;;;;;19.90;39.40;;;;;;5093419;28;19966;-58
2023/05/29 01:55:54;;;;;;;;;;;19.90;39.50;;;;;;5109652;28;19927;-58
2023/05/29 01:58:21;;;;;;;;;;;19.90;39.70;;;;;;5109568;28;19924;-58
2023/05/29 02:00:49;;;;;;;;;;;19.90;39.60;;;;;;5093908;28;19920;-58
2023/05/29 02:03:19;;;;;;;;;;;19.90;39.70;;;;;;5092353;28;19923;-58
2023/05/29 02:05:46;;;;;;;;;;;19.90;39.70;;;;;;5107915;28;19931;-58
2023/05/29 02:08:13;;;;;;;;;;;19.90;40.30;;;;;;5093679;28;19920;-58
2023/05/29 02:10:40;;;;;;;;;;;19.90;39.60;;;;;;5093687;28;19965;-58
2023/05/29 02:13:06;;;;;;;;;;;19.90;39.60;;;;;;5092379;28;19920;-58
2023/05/29 02:15:33;;;;;;;;;;;19.90;39.60;;;;;;5091736;28;19950;-58
2023/05/29 02:18:00;;;;;;;;;;;19.90;39.60;;;;;;5092115;28;19920;-58
2023/05/29 02:20:29;;;;;;;;;;;19.90;39.60;;;;;;5093678;28;19926;-58
2023/05/29 02:22:56;;;;;;;;;;;19.90;39.60;;;;;;5092300;28;19959;-58
2023/05/29 02:25:22;;;;;;;;;;;19.90;39.50;;;;;;5092371;28;19924;-58
2023/05/29 02:27:49;;;;;;;;;;;19.90;39.50;;;;;;5092416;28;19946;-58
2023/05/29 02:30:16;;;;;;;;;;;19.90;39.60;;;;;;5112033;28;19924;-58
2023/05/29 02:32:42;;;;;;;;;;;19.90;39.50;;;;;;5113136;28;19946;-58
2023/05/29 02:35:09;;;;;;;;;;;19.90;39.50;;;;;;5096833;28;19920;-58
2023/05/29 02:37:38;;;;;;;;;;;19.90;39.40;;;;;;5097267;28;19990;-58
2023/05/29 02:40:06;;;;;;;;;;;19.90;39.40;;;;;;5094949;28;19950;-58
2023/05/29 02:42:33;;;;;;;;;;;19.80;39.30;;;;;;5092962;28;19931;-58
2023/05/29 02:44:59;;;;;;;;;;;19.80;39.30;;;;;;5090977;28;19955;-58
2023/05/29 02:47:26;;;;;;;;;;;19.80;39.30;;;;;;5094356;28;19974;-58
2023/05/29 02:49:53;;;;;;;;;;;19.80;39.30;;;;;;5096775;28;19927;-58
2023/05/29 02:52:20;;;;;;;;;;;19.80;39.30;;;;;;5095550;28;19920;-58
2023/05/29 02:54:48;;;;;;;;;;;19.80;39.30;;;;;;5095334;28;19952;-58
2023/05/29 02:57:15;;;;;;;;;;;19.80;39.20;;;;;;5093098;28;19920;-58
2023/05/29 02:59:44;;;;;;;;;;;19.80;39.20;;;;;;5092858;28;20345;-57
2023/05/29 03:02:10;;;;;;;;;;;19.80;39.30;;;;;;5094010;28;19920;-58
2023/05/29 03:04:37;;;;;;;;;;;19.80;39.40;;;;;;5096269;28;19920;-58
2023/05/29 03:07:04;;;;;;;;;;;19.80;39.30;;;;;;5095735;28;19965;-58
2023/05/29 03:09:31;;;;;;;;;;;19.80;39.30;;;;;;5095182;28;19921;-58
2023/05/29 03:12:01;;;;;;;;;;;19.80;39.30;;;;;;5093269;28;19927;-58
2023/05/29 03:14:27;;;;;;;;;;;19.90;39.30;;;;;;5108583;28;19942;-58
2023/05/29 03:16:54;;;;;;;;;;;19.90;39.20;;;;;;5109408;28;19924;-58
2023/05/29 03:19:21;;;;;;;;;;;19.90;39.20;;;;;;5110282;28;19920;-58
2023/05/29 03:21:47;;;;;;;;;;;19.90;39.20;;;;;;5109180;28;20319;-58
2023/05/29 03:24:14;;;;;;;;;;;19.90;39.10;;;;;;5108525;28;19981;-58
2023/05/29 03:26:41;;;;;;;;;;;19.90;39.10;;;;;;5092164;28;19939;-58
2023/05/29 03:29:09;;;;;;;;;;;19.90;39.10;;;;;;5093344;28;19969;-58
2023/05/29 03:31:36;;;;;;;;;;;19.90;39.10;;;;;;5109450;28;19927;-58
2023/05/29 03:34:03;;;;;;;;;;;19.90;39.10;;;;;;5093239;28;20274;-58
2023/05/29 03:36:31;;;;;;;;;;;19.90;39.10;;;;;;5093270;28;19920;-58
2023/05/29 03:38:58;;;;;;;;;;;19.90;39.10;;;;;;5105940;28;19958;-58
2023/05/29 03:41:25;;;;;;;;;;;19.90;39.60;;;;;;5109643;28;19924;-58
2023/05/29 03:43:52;;;;;;;;;;;19.90;39.00;;;;;;5107696;28;19920;-57
2023/05/29 03:46:20;;;;;;;;;;;19.90;39.00;;;;;;5092998;28;19920;-58
2023/05/29 03:48:46;;;;;;;;;;;19.90;39.00;;;;;;5108269;28;19974;-58
2023/05/29 03:51:13;;;;;;;;;;;19.90;38.90;;;;;;5091429;28;20366;-58
2023/05/29 03:53:40;;;;;;;;;;;19.90;38.90;;;;;;5107523;28;19970;-57
2023/05/29 03:56:06;;;;;;;;;;;19.90;38.90;;;;;;5108449;28;20212;-57
2023/05/29 03:58:33;;;;;;;;;;;19.90;38.80;;;;;;5091640;28;19928;-58
2023/05/29 04:01:00;;;;;;;;;;;19.80;38.80;;;;;;5094230;28;19920;-57
2023/05/29 04:03:29;;;;;;;;;;;19.90;38.90;;;;;;5093286;28;19927;-57
2023/05/29 04:05:56;;;;;;;;;;;19.90;38.90;;;;;;5092823;28;20010;-58
2023/05/29 04:08:23;;;;;;;;;;;19.90;38.90;;;;;;5094001;28;19920;-58
2023/05/29 04:10:53;;;;;;;;;;;19.80;38.80;;;;;;5094360;28;20293;-58
2023/05/29 04:13:20;;;;;;;;;;;19.80;38.70;;;;;;5094891;28;19927;-58
2023/05/29 04:15:47;;;;;;;;;;;19.80;38.80;;;;;;5094813;28;19920;-58
2023/05/29 04:18:14;;;;;;;;;;;19.80;38.70;;;;;;5093547;28;19933;-58
2023/05/29 04:20:42;;;;;;;;;;;19.80;38.80;;;;;;5095368;28;19989;-58
2023/05/29 04:23:08;;;;;;;;;;;19.80;38.80;;;;;;5092377;28;19935;-58
2023/05/29 04:25:36;;;;;;;;;;;19.80;38.80;;;;;;5111040;28;20367;-58
2023/05/29 04:28:03;;;;;;;;;;;19.80;38.80;;;;;;5110750;28;19927;-58
2023/05/29 04:30:32;;;;;;;;;;;19.80;38.80;;;;;;5093493;28;19920;-58
2023/05/29 04:32:59;;;;;;;;;;;19.80;38.80;;;;;;5093625;28;20018;-58
2023/05/29 04:35:28;;;;;;;;;;;19.80;38.90;;;;;;5108937;28;19920;-58
2023/05/29 04:37:56;;;;;;;;;;;19.80;38.90;;;;;;5094814;28;19983;-58
2023/05/29 04:40:23;;;;;;;;;;;19.80;38.90;;;;;;5111436;28;19924;-58
2023/05/29 04:42:50;;;;;;;;;;;19.80;38.90;;;;;;5094661;28;19923;-58
2023/05/29 04:45:19;;;;;;;;;;;19.80;38.80;;;;;;5110594;28;19966;-58
2023/05/29 04:47:46;;;;;;;;;;;19.80;38.80;;;;;;5111255;28;19927;-58
2023/05/29 04:50:13;;;;;;;;;;;19.80;38.70;;;;;;5094682;28;19981;-58
2023/05/29 04:52:40;;;;;;;;;;;19.80;38.70;;;;;;5092120;28;19920;-58
2023/05/29 04:55:08;;;;;;;;;;;19.80;38.70;;;;;;5093716;28;19920;-58
2023/05/29 04:57:35;;;;;;;;;;;19.80;38.70;;;;;;5091565;28;19977;-58
2023/05/29 05:00:05;;;;;;;;;;;19.80;38.60;;;;;;5093169;28;20036;-58
2023/05/29 05:02:31;;;;;;;;;;;19.80;38.60;;;;;;5110810;28;19920;-58
2023/05/29 05:04:58;;;;;;;;;;;19.80;38.60;;;;;;5110369;28;19928;-58
2023/05/29 05:07:25;;;;;;;;;;;19.80;38.50;;;;;;5092273;28;19920;-58
2023/05/29 05:09:52;;;;;;;;;;;19.80;38.40;;;;;;5094077;28;19927;-58
2023/05/29 05:12:20;;;;;;;;;;;19.80;38.40;;;;;;5093391;28;19919;-58
2023/05/29 05:14:47;;;;;;;;;;;19.80;38.40;;;;;;5091878;28;19982;-58
2023/05/29 05:17:14;;;;;;;;;;;19.80;38.30;;;;;;5110644;28;19924;-58
2023/05/29 05:19:40;;;;;;;;;;;19.80;38.30;;;;;;5093043;28;19942;-58
2023/05/29 05:22:07;;;;;;;;;;;19.70;38.20;;;;;;5110183;28;19919;-58
2023/05/29 05:24:34;;;;;;;;;;;19.70;38.20;;;;;;5109977;28;19924;-58
2023/05/29 05:27:01;;;;;;;;;;;19.70;38.30;;;;;;5110214;28;20380;-58
2023/05/29 05:29:29;;;;;;;;;;;19.70;38.30;;;;;;5092128;28;20018;-58
2023/05/29 05:31:56;;;;;;;;;;;19.70;38.20;;;;;;5092489;28;19969;-58
2023/05/29 05:34:23;;;;;;;;;;;19.70;38.20;;;;;;5092635;28;19920;-58
2023/05/29 05:36:50;;;;;;;;;;;19.70;38.30;;;;;;5092905;28;19920;-58
2023/05/29 05:39:17;;;;;;;;;;;19.60;38.20;;;;;;5109620;28;19963;-58
2023/05/29 05:41:44;;;;;;;;;;;19.60;38.30;;;;;;5092715;28;20324;-58
2023/05/29 05:44:10;;;;;;;;;;;19.60;38.40;;;;;;5093461;28;19927;-58
2023/05/29 05:46:39;;;;;;;;;;;19.60;38.40;;;;;;5092644;28;19927;-58
2023/05/29 05:49:05;;;;;;;;;;;19.60;38.30;;;;;;5093628;28;20293;-58
2023/05/29 05:51:32;;;;;;;;;;;19.60;38.30;;;;;;5093400;28;19920;-58
2023/05/29 05:53:59;;;;;;;;;;;19.60;38.40;;;;;;5090701;28;20370;-58
2023/05/29 05:56:26;;;;;;;;;;;19.60;38.30;;;;;;5092533;28;19924;-58
2023/05/29 05:58:52;;;;;;;;;;;19.60;38.30;;;;;;5093125;28;20334;-58
2023/05/29 06:01:19;;;;;;;;;;;19.60;38.30;;;;;;5093296;28;19999;-58
2023/05/29 06:03:48;;;;;;;;;;;19.60;38.20;;;;;;5107973;28;19942;-58
2023/05/29 06:06:14;;;;;;;;;;;19.70;38.20;;;;;;5114121;28;19977;-58
2023/05/29 06:08:41;;;;;;;;;;;19.60;38.10;;;;;;5098262;28;19984;-58
2023/05/29 06:11:08;;;;;;;;;;;19.60;38.20;;;;;;5113120;28;19929;-58
2023/05/29 06:13:34;;;;;;;;;;;19.60;38.10;;;;;;5096438;28;19928;-58
2023/05/29 06:16:01;;;;;;;;;;;19.60;38.10;;;;;;5094630;28;19969;-58
2023/05/29 06:18:28;;;;;;;;;;;19.60;38.00;;;;;;5097459;28;19920;-58
2023/05/29 06:20:56;;;;;;;;;;;19.60;38.10;;;;;;5093863;28;19931;-58
2023/05/29 06:23:23;;;;;;;;;;;19.60;38.10;;;;;;5113878;28;20259;-58
2023/05/29 06:25:50;;;;;;;;;;;19.60;38.10;;;;;;5097510;28;19924;-58
2023/05/29 06:28:16;;;;;;;;;;;19.60;38.10;;;;;;5097408;28;19963;-58
2023/05/29 06:30:43;;;;;;;;;;;19.60;38.30;;;;;;5096176;28;19924;-58
2023/05/29 06:33:10;;;;;;;;;;;19.60;38.10;;;;;;5095548;28;19920;-58
2023/05/29 06:35:37;;;;;;;;;;;19.60;38.00;;;;;;5109111;28;20015;-58
2023/05/29 06:38:05;;;;;;;;;;;19.60;37.90;;;;;;5090636;28;19920;-58
2023/05/29 06:40:32;;;;;;;;;;;19.60;37.90;;;;;;5102981;28;19921;-58
2023/05/29 06:43:00;;;;;;;;;;;19.60;38.00;;;;;;5098163;28;19927;-58
2023/05/29 06:45:27;;;;;;;;;;;19.60;38.00;;;;;;5100339;28;19921;-58
2023/05/29 06:47:55;;;;;;;;;;;19.60;38.00;;;;;;5102735;28;19920;-58
2023/05/29 06:50:21;;;;;;;;;;;19.60;38.00;;;;;;5093783;28;19985;-58
2023/05/29 06:52:48;;;;;;;;;;;19.60;38.00;;;;;;5092066;28;19974;-58
2023/05/29 06:55:16;;;;;;;;;;;19.60;38.10;;;;;;5093295;28;19969;-58
2023/05/29 06:57:43;;;;;;;;;;;19.60;38.10;;;;;;5103897;28;20366;-58
2023/05/29 07:00:11;;;;;;;;;;;19.60;38.10;;;;;;5100082;28;19924;-58
2023/05/29 07:02:37;;;;;;;;;;;19.60;38.10;;;;;;5097861;28;19925;-58
2023/05/29 07:05:04;;;;;;;;;;;19.60;38.10;;;;;;5109302;28;19926;-58
2023/05/29 07:07:32;;;;;;;;;;;19.60;38.10;;;;;;5091111;28;19927;-58
2023/05/29 07:09:58;;;;;;;;;;;19.60;38.10;;;;;;5107763;28;19976;-57
2023/05/29 07:12:27;;;;;;;;;;;19.60;38.00;;;;;;5111350;28;19924;-58
2023/05/29 07:14:54;;;;;;;;;;;19.60;38.00;;;;;;5075464;28;19974;-58
2023/05/29 07:17:20;;;;;;;;;;;19.60;38.00;;;;;;5091553;28;19921;-58
2023/05/29 07:19:49;;;;;;;;;;;19.60;38.00;;;;;;5092203;28;19921;-58
2023/05/29 07:22:15;;;;;;;;;;;19.60;38.00;;;;;;5076155;28;19921;-58
2023/05/29 07:24:42;;;;;;;;;;;19.60;38.00;;;;;;5091544;28;19920;-58
2023/05/29 07:27:09;;;;;;;;;;;19.60;38.00;;;;;;5094428;28;19920;-58
2023/05/29 07:29:37;;;;;;;;;;;19.60;38.00;;;;;;5090956;28;19920;-58
2023/05/29 07:32:04;;;;;;;;;;;19.70;38.00;;;;;;5099712;28;19920;-57
2023/05/29 07:34:31;;;;;;;;;;;19.70;38.00;;;;;;5090856;28;19920;-57
2023/05/29 07:36:58;;;;;;;;;;;19.70;38.00;;;;;;5095983;28;19924;-58
2023/05/29 07:39:25;;;;;;;;;;;19.70;38.00;;;;;;5093356;28;19924;-58
2023/05/29 07:41:52;;;;;;;;;;;19.70;38.00;;;;;;5108182;28;19924;-58
2023/05/29 07:44:19;;;;;;;;;;;19.70;38.00;;;;;;5091574;28;19926;-58
2023/05/29 07:46:47;;;;;;;;;;;19.70;38.00;;;;;;5091624;28;19920;-58
2023/05/29 07:49:14;;;;;;;;;;;19.70;37.90;;;;;;5094480;28;19924;-57
2023/05/29 07:51:41;;;;;;;;;;;19.70;38.00;;;;;;5092698;28;19920;-57
2023/05/29 07:54:08;;;;;;;;;;;19.60;38.00;;;;;;5111663;28;19998;-57
2023/05/29 07:56:34;;;;;;;;;;;19.60;38.00;;;;;;5087413;28;19921;-57
2023/05/29 07:59:01;;;;;;;;;;;19.60;38.00;;;;;;5090948;28;19920;-57
2023/05/29 08:01:28;;;;;;;;;;;19.60;38.10;;;;;;5095115;28;19920;-57
2023/05/29 08:03:56;;;;;;;;;;;19.70;38.30;;;;;;5093015;28;19931;-58
2023/05/29 08:06:23;;;;;;;;;;;19.70;38.40;;;;;;5094344;28;19920;-57
2023/05/29 08:08:50;;;;;;;;;;;19.70;38.40;;;;;;5093921;28;19974;-57
2023/05/29 08:11:17;;;;;;;;;;;19.70;38.30;;;;;;5109412;28;19924;-57
2023/05/29 08:13:44;;;;;;;;;;;19.70;38.30;;;;;;5090650;28;19928;-58
2023/05/29 08:16:10;;;;;;;;;;;19.70;38.30;;;;;;5091780;28;19920;-57
2023/05/29 08:18:37;;;;;;;;;;;19.70;38.30;;;;;;5093734;28;19929;-58
2023/05/29 08:21:06;;;;;;;;;;;19.70;38.40;;;;;;5091417;28;19920;-58
2023/05/29 08:23:33;;;;;;;;;;;19.70;38.40;;;;;;5091425;28;19924;-58
2023/05/29 08:26:00;;;;;;;;;;;19.70;38.40;;;;;;5090452;28;19920;-57
2023/05/29 08:28:27;;;;;;;;;;;19.70;38.40;;;;;;5101435;28;19930;-57
2023/05/29 08:30:54;;;;;;;;;;;19.70;38.50;;;;;;5107500;28;19942;-57
2023/05/29 08:33:20;;;;;;;;;;;19.70;38.40;;;;;;5092907;28;19920;-57
2023/05/29 08:35:47;;;;;;;;;;;19.70;38.30;;;;;;5094923;28;19924;-57
2023/05/29 08:38:15;;;;;;;;;;;19.70;38.30;;;;;;5090191;28;19932;-57
2023/05/29 08:40:42;;;;;;;;;;;19.70;38.30;;;;;;5110829;28;19920;-57
2023/05/29 08:43:11;;;;;;;;;;;19.70;38.20;;;;;;5110363;28;19920;-57
2023/05/29 08:45:38;;;;;;;;;;;19.70;38.20;;;;;;5093608;28;19920;-57
2023/05/29 08:48:05;;;;;;;;;;;19.70;38.20;;;;;;5093777;28;19965;-57
2023/05/29 08:50:32;;;;;;;;;;;19.70;38.30;;;;;;5096685;28;19920;-57
2023/05/29 08:52:59;;;;;;;;;;;19.70;38.30;;;;;;5074417;28;19970;-57
2023/05/29 08:55:27;;;;;;;;;;;19.70;38.40;;;;;;5105398;28;19920;-57
2023/05/29 08:57:54;;;;;;;;;;;19.70;38.40;;;;;;5094940;28;19973;-57
2023/05/29 09:00:22;;;;;;;;;;;19.70;38.30;;;;;;5110163;28;19973;-57
2023/05/29 09:02:48;;;;;;;;;;;19.70;38.30;;;;;;5094615;28;19989;-57
2023/05/29 09:05:18;;;;;;;;;;;19.70;38.30;;;;;;5109984;28;20206;-57
2023/05/29 09:07:46;;;;;;;;;;;19.70;38.40;;;;;;5107995;28;19927;-57
2023/05/29 09:10:15;;;;;;;;;;;19.70;39.00;;;;;;5093287;28;19999;-57
2023/05/29 09:12:43;;;;;;;;;;;19.70;38.40;;;;;;5110259;28;19924;-57
2023/05/29 09:15:17;;;;;;;;;;;19.70;38.40;;;;;;5093091;28;19920;-58
2023/05/29 09:17:44;;;;;;;;;;;19.70;38.50;;;;;;5110063;28;19927;-57
2023/05/29 09:20:15;;;;;;;;;;;19.70;38.50;;;;;;5110967;28;19920;-57
2023/05/29 09:22:43;;;;;;;;;;;19.80;38.60;;;;;;5108091;28;20362;-57
2023/05/29 09:25:10;;;;;;;;;;;19.80;38.60;;;;;;5094010;28;19920;-58
2023/05/29 09:27:49;;;;;;;;;;;19.70;38.60;;;;;;5094005;28;19946;-59
2023/05/29 09:30:16;;;;;;;;;;;19.80;38.70;;;;;;5093239;28;19920;-58
2023/05/29 09:32:43;;;;;;;;;;;19.80;38.70;;;;;;5090776;28;19924;-57
2023/05/29 09:35:10;;;;;;;;;;;19.80;38.70;;;;;;5093287;28;19920;-57
2023/05/29 09:37:37;;;;;;;;;;;19.80;38.80;;;;;;5094165;28;19920;-57
2023/05/29 09:40:05;;;;;;;;;;;19.80;38.80;;;;;;5091218;28;19970;-57
2023/05/29 09:42:31;;;;;;;;;;;19.80;38.80;;;;;;5093391;28;19920;-57
2023/05/29 09:45:02;;;;;;;;;;;19.90;38.90;;;;;;5092445;28;19928;-57
2023/05/29 09:47:30;;;;;;;;;;;19.90;38.90;;;;;;5094039;28;19973;-57
2023/05/29 09:49:57;;;;;;;;;;;19.90;38.90;;;;;;5092443;28;19926;-57
2023/05/29 09:52:24;;;;;;;;;;;19.90;39.00;;;;;;5093275;28;19920;-57
2023/05/29 09:54:50;;;;;;;;;;;19.90;38.90;;;;;;5092602;28;20313;-57
2023/05/29 09:57:18;;;;;;;;;;;19.90;39.00;;;;;;5093921;28;19928;-57
2023/05/29 09:59:46;;;;;;;;;;;19.90;39.00;;;;;;5093151;28;19942;-55
2023/05/29 10:02:15;;;;;;;;;;;19.90;39.00;;;;;;5085697;28;19921;-57
2023/05/29 10:04:43;;;;;;;;;;;19.90;39.00;;;;;;5103184;28;20366;-57
2023/05/29 10:07:11;;;;;;;;;;;19.90;39.00;;;;;;5108728;28;20006;-58
2023/05/29 10:09:39;;;;;;;;;;;19.90;39.00;;;;;;5091365;28;19924;-58
2023/05/29 10:12:07;;;;;;;;;;;19.90;38.90;;;;;;5088885;28;19920;-58
2023/05/29 10:14:34;;;;;;;;;;;19.90;38.90;;;;;;5080504;28;19924;-58
2023/05/29 10:17:02;;;;;;;;;;;19.90;38.90;;;;;;5092704;28;19974;-58
2023/05/29 10:19:30;;;;;;;;;;;19.90;38.90;;;;;;5102460;28;19920;-58
2023/05/29 10:21:57;;;;;;;;;;;19.90;38.90;;;;;;5106105;28;19950;-57
2023/05/29 10:24:24;;;;;;;;;;;19.90;38.90;;;;;;5090473;28;19962;-57
2023/05/29 10:26:51;;;;;;;;;;;19.90;38.90;;;;;;5089448;28;19920;-57
2023/05/29 10:29:19;;;;;;;;;;;19.90;38.80;;;;;;5110392;28;20023;-57
2023/05/29 10:31:48;;;;;;;;;;;19.90;38.80;;;;;;5089948;28;20308;-57
2023/05/29 10:34:18;;;;;;;;;;;19.90;38.80;;;;;;5090884;28;19970;-57
2023/05/29 10:36:48;;;;;;;;;;;20.00;38.90;;;;;;5091176;28;19923;-57
2023/05/29 10:39:15;;;;;;;;;;;19.90;38.80;;;;;;5092563;28;19920;-58
2023/05/29 10:41:41;;;;;;;;;;;19.90;38.70;;;;;;5092805;28;19920;-58
2023/05/29 10:44:29;;;;;;;;;;;19.90;38.70;;;;;;5094168;28;19924;-57
2023/05/29 10:47:06;;;;;;;;;;;19.90;38.70;;;;;;5084330;28;19931;-58
2023/05/29 10:49:33;;;;;;;;;;;19.90;38.70;;;;;;5093047;28;19924;-58
2023/05/29 10:52:01;;;;;;;;;;;19.90;38.80;;;;;;5095269;28;19927;-58
2023/05/29 10:54:28;;;;;;;;;;;20.00;38.90;;;;;;5076482;28;19928;-56
2023/05/29 10:56:56;;;;;;;;;;;20.00;39.00;;;;;;5093418;28;19982;-58
2023/05/29 10:59:26;;;;;;;;;;;20.00;39.00;;;;;;5093084;28;19928;-58
2023/05/29 11:01:53;;;;;;;;;;;20.00;39.00;;;;;;5092760;28;20355;-56
2023/05/29 11:04:27;;;;;;;;;;;20.00;39.00;;;;;;5103251;28;19920;-57
2023/05/29 11:06:54;;;;;;;;;;;20.00;39.00;;;;;;5113381;28;19990;-58
2023/05/29 11:09:30;;;;;;;;;;;20.00;39.00;;;;;;5112981;28;20285;-58
2023/05/29 11:12:13;;;;;;;;;;;20.00;39.00;;;;;;5110998;28;19919;-58
2023/05/29 11:14:46;;;;;;;;;;;20.00;39.00;;;;;;5096961;28;19920;-58
2023/05/29 11:17:27;;;;;;;;;;;20.00;39.00;;;;;;5096247;28;19926;-58
2023/05/29 11:19:54;;;;;;;;;;;20.00;38.90;;;;;;5095050;28;19920;-58
2023/05/29 11:22:22;;;;;;;;;;;20.00;38.70;;;;;;5096545;28;19942;-58
2023/05/29 11:24:51;;;;;;;;;;;20.00;38.30;;;;;;5112710;28;19974;-58
2023/05/29 11:27:17;;;;;;;;;;;20.00;38.10;;;;;;5112011;28;19920;-58
2023/05/29 11:29:44;;;;;;;;;;;20.00;38.20;;;;;;5110508;28;19943;-58
2023/05/29 11:32:13;;;;;;;;;;;20.00;38.40;;;;;;5095742;28;20025;-58
2023/05/29 11:34:41;;;;;;;;;;;20.00;38.40;;;;;;5096212;28;19973;-58
2023/05/29 11:37:08;;;;;;;;;;;20.00;38.40;;;;;;5094863;28;19920;-57
2023/05/29 11:39:36;;;;;;;;;;;20.00;38.40;;;;;;5093538;28;19920;-57
2023/05/29 11:42:05;;;;;;;;;;;20.00;38.20;;;;;;5095780;28;19920;-57
2023/05/29 11:44:32;;;;;;;;;;;20.00;38.10;;;;;;5112051;28;19927;-57
2023/05/29 11:47:03;;;;;;;;;;;20.00;38.10;;;;;;5093026;28;19924;-57
2023/05/29 11:49:30;;;;;;;;;;;19.90;37.80;;;;;;5112585;28;19920;-57
2023/05/29 11:52:06;;;;;;;;;;;19.90;37.70;;;;;;5096101;28;19920;-58
2023/05/29 11:54:33;;;;;;;;;;;19.90;38.00;;;;;;5096263;28;19924;-57
2023/05/29 11:57:00;;;;;;;;;;;19.90;38.30;;;;;;5096992;28;19974;-56
2023/05/29 11:59:30;;;;;;;;;;;19.90;38.30;;;;;;5094250;28;20015;-56
2023/05/29 12:01:57;;;;;;;;;;;19.90;38.30;;;;;;5096309;28;19927;-58
2023/05/29 12:04:24;;;;;;;;;;;19.90;38.40;;;;;;5111908;28;19956;-58
2023/05/29 12:06:50;;;;;;;;;;;20.00;38.60;;;;;;5095268;28;19920;-57
2023/05/29 12:09:27;;;;;;;;;;;20.00;38.60;;;;;;5095721;28;19920;-57
2023/05/29 12:11:54;;;;;;;;;;;20.00;38.60;;;;;;5108910;28;19932;-58
2023/05/29 12:14:21;;;;;;;;;;;20.00;38.60;;;;;;5095917;28;19920;-55
2023/05/29 12:16:50;;;;;;;;;;;20.00;38.10;;;;;;5111514;28;19919;-58
2023/05/29 12:19:16;;;;;;;;;;;20.00;38.10;;;;;;5111935;28;20363;-58
2023/05/29 12:21:44;;;;;;;;;;;20.00;38.20;;;;;;5095330;28;19927;-57
2023/05/29 12:24:11;;;;;;;;;;;20.00;38.20;;;;;;5111167;28;19920;-57
2023/05/29 12:26:38;;;;;;;;;;;20.00;38.10;;;;;;5095637;28;20362;-57
2023/05/29 12:29:05;;;;;;;;;;;20.00;38.20;;;;;;5111135;28;19920;-58
2023/05/29 12:31:32;;;;;;;;;;;20.00;38.30;;;;;;5109268;28;19920;-58
2023/05/29 12:34:01;;;;;;;;;;;20.00;38.20;;;;;;5094900;28;20498;-57
2023/05/29 12:36:28;;;;;;;;;;;20.00;38.30;;;;;;5091989;28;19920;-56
2023/05/29 12:38:57;;;;;;;;;;;20.00;38.30;;;;;;5091735;28;19927;-57
2023/05/29 12:41:27;;;;;;;;;;;20.00;38.30;;;;;;5093583;28;19919;-57
2023/05/29 12:43:56;;;;;;;;;;;20.10;38.40;;;;;;5090817;28;20350;-57
2023/05/29 12:46:23;;;;;;;;;;;20.10;38.50;;;;;;5109064;28;19920;-58
2023/05/29 12:48:50;;;;;;;;;;;20.10;38.50;;;;;;5090560;28;19931;-58
2023/05/29 12:51:20;;;;;;;;;;;20.10;38.50;;;;;;5092579;28;20362;-58
2023/05/29 12:53:46;;;;;;;;;;;20.10;38.50;;;;;;5109834;28;19951;-58
2023/05/29 12:56:13;;;;;;;;;;;20.10;38.50;;;;;;5093121;28;19970;-59
2023/05/29 12:58:40;;;;;;;;;;;20.10;38.50;;;;;;5106151;28;19924;-56
2023/05/29 13:01:07;;;;;;;;;;;20.10;38.50;;;;;;5090591;28;19933;-59
2023/05/29 13:03:34;;;;;;;;;;;20.10;38.60;;;;;;5092970;28;19920;-58
2023/05/29 13:06:00;;;;;;;;;;;20.10;38.60;;;;;;5089602;28;19924;-59
2023/05/29 13:08:29;;;;;;;;;;;20.10;38.70;;;;;;5109788;28;19920;-58
2023/05/29 13:10:55;;;;;;;;;;;20.20;38.70;;;;;;5099014;28;19965;-57
2023/05/29 13:13:22;;;;;;;;;;;20.20;38.80;;;;;;5092396;28;19966;-57
2023/05/29 13:15:49;;;;;;;;;;;20.20;38.80;;;;;;5090758;28;19959;-56
2023/05/29 13:18:16;;;;;;;;;;;20.20;38.80;;;;;;5108470;28;19927;-57
2023/05/29 13:20:43;;;;;;;;;;;20.20;38.80;;;;;;5112006;28;19927;-56
2023/05/29 13:23:10;;;;;;;;;;;20.20;38.80;;;;;;5096098;28;19920;-57
2023/05/29 13:25:38;;;;;;;;;;;20.20;38.90;;;;;;5089946;28;19926;-58
2023/05/29 13:28:05;;;;;;;;;;;20.20;38.80;;;;;;5091132;28;19927;-56
2023/05/29 13:30:31;;;;;;;;;;;20.20;38.80;;;;;;5092007;28;19924;-57
2023/05/29 13:32:58;;;;;;;;;;;20.20;38.90;;;;;;5088624;28;19920;-57
2023/05/29 13:35:25;;;;;;;;;;;20.20;38.80;;;;;;5081789;28;19927;-57
2023/05/29 13:37:52;;;;;;;;;;;20.20;38.90;;;;;;5091501;28;20335;-58
2023/05/29 13:40:18;;;;;;;;;;;20.20;38.90;;;;;;5091717;28;19927;-58
2023/05/29 13:42:47;;;;;;;;;;;20.20;38.90;;;;;;5092197;28;19920;-58
2023/05/29 13:45:14;;;;;;;;;;;20.20;38.90;;;;;;5109787;28;19920;-56
2023/05/29 13:47:41;;;;;;;;;;;20.20;39.00;;;;;;5094310;28;20412;-58
2023/05/29 13:50:08;;;;;;;;;;;20.20;39.00;;;;;;5110179;28;19977;-58
2023/05/29 13:52:34;;;;;;;;;;;20.20;39.00;;;;;;5092132;28;19924;-58
2023/05/29 13:55:06;;;;;;;;;;;20.20;39.00;;;;;;5110436;28;19946;-58
2023/05/29 13:57:33;;;;;;;;;;;20.20;39.00;;;;;;5109780;28;19942;-57
2023/05/29 14:00:01;;;;;;;;;;;20.20;39.00;;;;;;5091300;28;19920;-58
2023/05/29 14:02:29;;;;;;;;;;;20.20;39.00;;;;;;5094423;28;19920;-58
2023/05/29 14:04:55;;;;;;;;;;;20.20;39.00;;;;;;5093247;28;19920;-58
2023/05/29 14:07:22;;;;;;;;;;;20.30;39.20;;;;;;5109663;28;19920;-58
2023/05/29 14:09:49;;;;;;;;;;;20.30;39.20;;;;;;5093261;28;19920;-58
2023/05/29 14:12:16;;;;;;;;;;;20.30;39.20;;;;;;5094137;28;20342;-58
2023/05/29 14:14:43;;;;;;;;;;;20.20;39.10;;;;;;5094201;28;19927;-58
2023/05/29 14:17:12;;;;;;;;;;;20.30;39.20;;;;;;5092750;28;20277;-58